Time;durP1;ratioP1;P1;durP2;ratioP2;P2;SDS_P1;SDS_P2;PMS_P1;PMS_P2;Temp;Humidity;BMP_temperature;BMP_pressure;BME280_temperature;BME280_humidity;BME280_pressure;Samples;Min_cycle;Max_cycle;Signal;HPM_P1;HPM_P2
2022/07/30 05:00:10;;;;;;;6.13;5.20;;;19.70;97.20;;;;;;1708124;29;20241;-75
2022/07/30 05:01:02;;;;;;;5.32;4.93;;;19.70;97.20;;;;;;1708007;29;20214;-77
2022/07/30 05:01:57;;;;;;;5.80;5.30;;;19.70;97.20;;;;;;1708131;29;20639;-76
2022/07/30 05:02:50;;;;;;;5.60;5.03;;;19.70;97.20;;;;;;1708010;29;20253;-76
2022/07/30 05:03:43;;;;;;;5.57;4.93;;;19.70;97.20;;;;;;1708044;29;20206;-76
2022/07/30 05:04:35;;;;;;;5.60;5.05;;;19.80;97.20;;;;;;1707996;29;20218;-77
2022/07/30 05:05:31;;;;;;;6.47;5.88;;;19.70;97.20;;;;;;1707988;29;20206;-76
2022/07/30 05:06:22;;;;;;;5.70;5.10;;;19.80;97.20;;;;;;1706368;29;20202;-76
2022/07/30 05:07:15;;;;;;;5.68;5.10;;;19.80;97.20;;;;;;1701263;29;20195;-77
2022/07/30 05:08:06;;;;;;;6.40;5.38;;;19.80;97.20;;;;;;1701358;29;20214;-77
2022/07/30 05:08:58;;;;;;;5.90;5.03;;;19.80;97.20;;;;;;1701407;29;20950;-76
2022/07/30 05:09:49;;;;;;;5.75;5.25;;;19.80;97.20;;;;;;1701379;29;20214;-78
2022/07/30 05:10:43;;;;;;;6.00;5.43;;;19.80;97.20;;;;;;1701338;29;20213;-77
2022/07/30 05:11:34;;;;;;;6.05;5.47;;;19.80;97.20;;;;;;1701399;29;20211;-77
2022/07/30 05:12:32;;;;;;;6.00;5.53;;;19.80;97.20;;;;;;1701398;29;20195;-75
2022/07/30 05:13:23;;;;;;;5.95;5.20;;;19.80;97.20;;;;;;1701515;29;20211;-76
2022/07/30 05:14:15;;;;;;;5.87;5.37;;;19.80;97.20;;;;;;1701344;29;20306;-77
2022/07/30 05:15:08;;;;;;;6.10;5.60;;;19.80;97.20;;;;;;1701053;29;20667;-77
2022/07/30 05:16:00;;;;;;;6.22;5.63;;;19.80;97.20;;;;;;1701184;29;20772;-76
2022/07/30 05:16:52;;;;;;;6.90;6.13;;;19.80;97.20;;;;;;1702073;29;20199;-76
2022/07/30 05:17:44;;;;;;;6.20;5.60;;;19.80;97.20;;;;;;1701271;29;20290;-77
2022/07/30 05:18:35;;;;;;;6.40;5.80;;;19.80;97.20;;;;;;1701331;29;20342;-77
2022/07/30 05:19:27;;;;;;;6.13;5.60;;;19.80;97.20;;;;;;1701363;29;20659;-76
2022/07/30 05:20:18;;;;;;;6.15;5.65;;;19.80;97.20;;;;;;1701450;29;20443;-76
2022/07/30 05:21:10;;;;;;;8.07;5.60;;;19.90;97.20;;;;;;1701311;29;20195;-75
2022/07/30 05:22:01;;;;;;;5.55;5.07;;;19.90;97.20;;;;;;1701324;29;20207;-76
2022/07/30 05:22:53;;;;;;;6.05;5.45;;;19.90;97.20;;;;;;1701388;29;20231;-76
2022/07/30 05:23:43;;;;;;;5.82;5.32;;;19.90;97.20;;;;;;1701291;29;20211;-76
2022/07/30 05:24:35;;;;;;;5.83;5.30;;;19.90;97.20;;;;;;1701305;29;20314;-76
2022/07/30 05:25:26;;;;;;;6.03;5.40;;;19.90;97.20;;;;;;1701292;29;20454;-77
2022/07/30 05:26:20;;;;;;;7.53;6.25;;;19.90;97.20;;;;;;1701329;29;20199;-76
2022/07/30 05:27:11;;;;;;;5.95;5.45;;;19.90;97.20;;;;;;1707307;28;20202;-76
2022/07/30 05:28:02;;;;;;;6.77;5.80;;;19.90;97.20;;;;;;1707793;29;20239;-76
2022/07/30 05:28:53;;;;;;;6.10;5.50;;;19.90;97.20;;;;;;1707955;29;20202;-76
2022/07/30 05:29:45;;;;;;;6.07;5.40;;;19.90;97.20;;;;;;1707911;29;20297;-77
2022/07/30 05:30:37;;;;;;;5.88;5.38;;;19.90;97.20;;;;;;1707866;29;20230;-78
2022/07/30 05:31:29;;;;;;;5.88;5.38;;;19.90;97.20;;;;;;1707836;29;20221;-77
2022/07/30 05:32:20;;;;;;;5.65;5.15;;;19.90;97.20;;;;;;1707875;29;20218;-76
2022/07/30 05:33:12;;;;;;;11.07;6.17;;;19.90;97.20;;;;;;1707972;29;20226;-75
2022/07/30 05:34:02;;;;;;;5.85;5.35;;;19.90;97.20;;;;;;1707624;29;20203;-76
2022/07/30 05:34:57;;;;;;;6.50;5.80;;;19.90;97.20;;;;;;1707926;29;20293;-76
2022/07/30 05:35:49;;;;;;;6.00;5.53;;;19.90;97.20;;;;;;1707836;29;20217;-75
2022/07/30 05:36:41;;;;;;;6.55;4.80;;;19.90;97.20;;;;;;1706987;29;20218;-76
2022/07/30 05:37:32;;;;;;;6.20;5.70;;;19.90;97.20;;;;;;1707944;29;20214;-77
2022/07/30 05:38:24;;;;;;;6.97;5.68;;;19.90;97.20;;;;;;1707959;29;20659;-76
2022/07/30 05:39:16;;;;;;;7.07;6.05;;;19.90;97.20;;;;;;1707978;29;20558;-76
2022/07/30 05:40:08;;;;;;;6.40;5.90;;;19.90;97.20;;;;;;1707825;29;20261;-77
2022/07/30 05:40:59;;;;;;;5.88;5.18;;;19.90;97.20;;;;;;1707883;29;20559;-77
2022/07/30 05:41:51;;;;;;;7.40;5.90;;;19.90;97.20;;;;;;1707841;29;20645;-77
2022/07/30 05:42:42;;;;;;;6.07;5.47;;;19.90;97.20;;;;;;1707689;29;20223;-76
2022/07/30 05:43:33;;;;;;;6.30;5.57;;;19.90;97.20;;;;;;1707753;29;20293;-77
2022/07/30 05:44:25;;;;;;;6.68;5.75;;;19.90;97.20;;;;;;1707682;29;20237;-76
2022/07/30 05:45:16;;;;;;;7.35;5.97;;;19.90;97.20;;;;;;1707880;28;20226;-75
2022/07/30 05:46:08;;;;;;;5.70;5.20;;;20.00;97.20;;;;;;1707663;29;20202;-77
2022/07/30 05:47:00;;;;;;;6.25;5.32;;;20.00;97.20;;;;;;1701866;29;20716;-76
2022/07/30 05:47:51;;;;;;;7.15;6.47;;;20.00;97.20;;;;;;1701129;29;20203;-76
2022/07/30 05:48:43;;;;;;;8.00;5.77;;;20.00;97.20;;;;;;1701064;29;20209;-76
2022/07/30 05:49:33;;;;;;;5.90;5.40;;;20.00;97.20;;;;;;1701109;29;20199;-76
2022/07/30 05:50:25;;;;;;;6.30;5.23;;;20.00;97.20;;;;;;1701186;29;20231;-76
2022/07/30 05:51:18;;;;;;;7.00;5.30;;;20.00;97.20;;;;;;1701144;29;20214;-76
2022/07/30 05:52:09;;;;;;;6.60;6.00;;;20.00;97.20;;;;;;1701085;29;20195;-76
2022/07/30 05:53:00;;;;;;;6.80;6.20;;;20.00;97.20;;;;;;1701085;29;20204;-77
2022/07/30 05:53:52;;;;;;;5.80;5.30;;;20.10;97.20;;;;;;1701121;29;20199;-76
2022/07/30 05:54:44;;;;;;;6.10;5.50;;;20.10;97.20;;;;;;1701055;29;20339;-77
2022/07/30 05:55:36;;;;;;;5.90;5.38;;;20.10;97.20;;;;;;1701097;29;20254;-76
2022/07/30 05:56:26;;;;;;;6.80;6.05;;;20.10;97.20;;;;;;1701551;29;20230;-77
2022/07/30 05:57:18;;;;;;;5.70;5.10;;;20.20;97.20;;;;;;1707439;29;20233;-75
2022/07/30 05:58:09;;;;;;;6.60;5.82;;;20.20;97.20;;;;;;1707620;29;20238;-75
2022/07/30 05:59:01;;;;;;;6.30;5.70;;;20.20;97.20;;;;;;1707393;29;20194;-75
2022/07/30 05:59:52;;;;;;;8.75;6.35;;;20.20;97.20;;;;;;1707665;29;20934;-76
2022/07/30 06:00:44;;;;;;;5.40;5.00;;;20.20;97.20;;;;;;1707628;29;20579;-76
2022/07/30 06:01:36;;;;;;;7.63;5.00;;;20.20;97.20;;;;;;1707590;29;20450;-76
2022/07/30 06:02:27;;;;;;;6.97;5.45;;;20.20;97.20;;;;;;1707574;29;20797;-76
2022/07/30 06:03:18;;;;;;;5.43;5.05;;;20.20;97.20;;;;;;1707726;29;20205;-75
2022/07/30 06:04:10;;;;;;;7.60;5.70;;;20.20;97.20;;;;;;1707579;29;20202;-76
2022/07/30 06:05:01;;;;;;;6.18;5.78;;;20.20;97.20;;;;;;1707564;29;20210;-76
2022/07/30 06:05:53;;;;;;;5.97;5.32;;;20.20;97.20;;;;;;1706000;29;20199;-76
2022/07/30 06:06:44;;;;;;;6.85;5.10;;;20.30;97.20;;;;;;1707012;29;20218;-75
2022/07/30 06:07:35;;;;;;;7.70;6.00;;;20.30;97.20;;;;;;1707669;29;20286;-75
2022/07/30 06:08:26;;;;;;;5.57;5.18;;;20.30;97.20;;;;;;1707572;29;20199;-75
2022/07/30 06:09:18;;;;;;;5.93;5.53;;;20.30;97.20;;;;;;1707714;29;20198;-76
2022/07/30 06:10:09;;;;;;;6.88;5.78;;;20.30;97.20;;;;;;1707565;29;20206;-75
2022/07/30 06:11:01;;;;;;;6.17;5.30;;;20.40;97.20;;;;;;1707605;29;20289;-76
2022/07/30 06:11:51;;;;;;;6.10;5.50;;;20.40;97.20;;;;;;1707555;29;20454;-77
2022/07/30 06:12:43;;;;;;;5.60;5.13;;;20.50;97.20;;;;;;1707590;29;20301;-76
2022/07/30 06:13:34;;;;;;;8.35;5.50;;;20.50;97.20;;;;;;1707658;29;20453;-76
2022/07/30 06:14:26;;;;;;;6.67;5.97;;;20.50;97.20;;;;;;1707506;29;20225;-76
2022/07/30 06:15:17;;;;;;;6.47;5.88;;;20.50;97.20;;;;;;1705619;29;20454;-75
2022/07/30 06:16:08;;;;;;;9.17;6.00;;;20.50;97.20;;;;;;1700891;29;20241;-77
2022/07/30 06:17:00;;;;;;;5.68;5.13;;;20.50;97.20;;;;;;1700666;29;20447;-76
2022/07/30 06:17:53;;;;;;;8.48;6.95;;;20.50;97.20;;;;;;1700958;29;20695;-76
2022/07/30 06:18:43;;;;;;;6.03;5.38;;;20.50;97.20;;;;;;1700878;29;20211;-76
2022/07/30 06:19:35;;;;;;;6.47;5.87;;;20.60;97.20;;;;;;1701009;29;20213;-76
2022/07/30 06:20:26;;;;;;;6.63;6.13;;;20.60;97.20;;;;;;1700932;29;20222;-76
2022/07/30 06:21:18;;;;;;;7.10;6.00;;;20.60;97.20;;;;;;1700967;29;20249;-76
2022/07/30 06:22:08;;;;;;;6.60;6.07;;;20.60;97.20;;;;;;1700953;29;20203;-75
2022/07/30 06:23:00;;;;;;;6.77;6.17;;;20.60;97.20;;;;;;1700797;29;20231;-75
2022/07/30 06:23:51;;;;;;;6.10;5.50;;;20.60;97.20;;;;;;1700920;29;20214;-76
2022/07/30 06:24:43;;;;;;;6.43;5.93;;;20.60;97.20;;;;;;1700851;29;20213;-76
2022/07/30 06:25:33;;;;;;;5.82;5.22;;;20.70;97.20;;;;;;1704505;29;20655;-77
2022/07/30 06:26:25;;;;;;;8.30;5.60;;;20.70;97.20;;;;;;1707465;29;20605;-75
2022/07/30 06:27:16;;;;;;;6.80;6.20;;;20.70;97.20;;;;;;1706446;29;20203;-76
2022/07/30 06:28:08;;;;;;;6.57;6.00;;;20.80;97.20;;;;;;1707443;29;20195;-76
2022/07/30 06:28:59;;;;;;;8.00;5.57;;;20.80;97.20;;;;;;1707505;29;20206;-76
2022/07/30 06:29:51;;;;;;;9.90;6.10;;;20.80;97.20;;;;;;1707724;29;20245;-77
2022/07/30 06:30:44;;;;;;;6.43;5.93;;;20.80;97.20;;;;;;1707541;29;20230;-76
2022/07/30 06:31:37;;;;;;;6.05;5.45;;;20.90;97.20;;;;;;1707635;29;20198;-76
2022/07/30 06:32:29;;;;;;;5.80;5.30;;;20.90;97.20;;;;;;1707495;29;20214;-76
2022/07/30 06:33:20;;;;;;;6.65;6.10;;;20.90;97.20;;;;;;1707517;29;20198;-77
2022/07/30 06:35:06;;;;;;;6.35;5.80;;;21.00;97.20;;;;;;1685227;29;20253;-72
2022/07/30 06:35:57;;;;;;;6.63;6.03;;;21.00;97.20;;;;;;1684064;29;20234;-72
2022/07/30 06:36:49;;;;;;;7.78;5.75;;;21.00;97.20;;;;;;1687255;29;20205;-72
2022/07/30 06:37:41;;;;;;;6.68;6.03;;;21.00;97.20;;;;;;1687695;29;20204;-72
2022/07/30 06:38:33;;;;;;;7.15;6.55;;;21.00;97.20;;;;;;1687765;29;20295;-72
2022/07/30 06:39:24;;;;;;;6.70;6.00;;;21.10;97.20;;;;;;1687746;29;20212;-72
2022/07/30 06:40:15;;;;;;;6.40;5.80;;;21.10;97.20;;;;;;1687806;29;20284;-72
2022/07/30 06:41:07;;;;;;;7.47;5.97;;;21.10;97.20;;;;;;1687752;29;20212;-72
2022/07/30 06:41:59;;;;;;;7.00;6.03;;;21.10;97.20;;;;;;1687723;29;20212;-72
2022/07/30 06:42:49;;;;;;;6.88;6.18;;;21.20;97.20;;;;;;1687669;29;20209;-72
2022/07/30 06:43:41;;;;;;;6.50;5.90;;;21.20;97.20;;;;;;1687724;29;20296;-72
2022/07/30 06:44:32;;;;;;;7.80;7.10;;;21.20;97.20;;;;;;1687765;29;20224;-72
2022/07/30 06:45:24;;;;;;;9.80;6.70;;;21.20;97.20;;;;;;1687645;29;20196;-72
2022/07/30 06:46:14;;;;;;;7.53;6.60;;;21.20;97.20;;;;;;1687748;29;20215;-72
2022/07/30 06:47:07;;;;;;;7.57;6.77;;;21.30;97.20;;;;;;1687609;29;20209;-72
2022/07/30 06:47:59;;;;;;;7.15;6.38;;;21.30;97.20;;;;;;1687675;29;20204;-72
2022/07/30 06:48:51;;;;;;;7.55;6.65;;;21.30;97.20;;;;;;1687705;29;20215;-72
2022/07/30 06:49:41;;;;;;;7.60;6.88;;;21.40;97.20;;;;;;1687750;29;20208;-72
2022/07/30 06:50:35;;;;;;;8.83;7.63;;;21.40;97.20;;;;;;1687743;29;20303;-72
2022/07/30 06:51:26;;;;;;;7.43;6.80;;;21.40;97.20;;;;;;1687745;29;20692;-72
2022/07/30 06:52:17;;;;;;;7.53;6.90;;;21.50;97.20;;;;;;1687712;29;20666;-72
2022/07/30 06:53:08;;;;;;;7.45;6.82;;;21.50;97.20;;;;;;1687878;29;20217;-72
2022/07/30 06:54:00;;;;;;;7.40;6.80;;;21.50;97.20;;;;;;1687341;29;20665;-72
2022/07/30 06:54:51;;;;;;;6.60;6.00;;;21.50;97.20;;;;;;1687793;29;20232;-72
2022/07/30 06:55:42;;;;;;;7.70;6.63;;;21.60;97.20;;;;;;1687743;29;20208;-72
2022/07/30 06:56:33;;;;;;;8.80;7.68;;;21.60;97.20;;;;;;1687450;29;20233;-72
2022/07/30 06:57:25;;;;;;;7.60;6.90;;;21.60;97.20;;;;;;1687762;29;20205;-72
2022/07/30 06:58:16;;;;;;;8.25;7.30;;;21.60;97.20;;;;;;1687677;29;20215;-72
2022/07/30 06:59:07;;;;;;;8.50;7.70;;;21.60;97.20;;;;;;1687734;29;20204;-72
2022/07/30 06:59:58;;;;;;;9.57;7.15;;;21.70;97.20;;;;;;1687694;29;20213;-72
2022/07/30 07:00:50;;;;;;;6.95;6.32;;;21.70;97.20;;;;;;1687719;29;20209;-72
2022/07/30 07:01:41;;;;;;;16.45;7.03;;;21.70;97.20;;;;;;1687702;29;20589;-72
2022/07/30 07:02:33;;;;;;;7.50;6.90;;;21.70;97.20;;;;;;1687778;29;20570;-72
2022/07/30 07:03:25;;;;;;;7.63;6.88;;;21.80;97.20;;;;;;1687679;29;20731;-72
2022/07/30 07:04:16;;;;;;;7.10;6.40;;;21.80;97.20;;;;;;1687366;29;20197;-72
2022/07/30 07:05:08;;;;;;;7.90;7.20;;;21.90;97.20;;;;;;1687747;29;20661;-72
2022/07/30 07:05:59;;;;;;;7.60;6.55;;;21.90;97.20;;;;;;1687627;29;20208;-72
2022/07/30 07:06:50;;;;;;;7.22;6.53;;;21.90;97.20;;;;;;1687514;29;20212;-72
2022/07/30 07:07:42;;;;;;;7.87;7.13;;;21.90;97.20;;;;;;1687659;29;20304;-72
2022/07/30 07:08:35;;;;;;;7.70;7.00;;;22.00;97.20;;;;;;1687585;29;20448;-72
2022/07/30 07:09:26;;;;;;;8.15;6.82;;;22.00;97.20;;;;;;1687691;29;20236;-72
2022/07/30 07:10:17;;;;;;;12.18;7.15;;;22.00;97.20;;;;;;1687706;29;20560;-72
2022/07/30 07:11:09;;;;;;;10.33;7.10;;;22.10;97.20;;;;;;1687731;29;20312;-72
2022/07/30 07:12:00;;;;;;;7.47;6.25;;;22.10;97.20;;;;;;1687617;29;20208;-72
2022/07/30 07:12:51;;;;;;;7.57;6.87;;;22.10;97.20;;;;;;1687817;29;20689;-72
2022/07/30 07:13:42;;;;;;;9.27;8.27;;;22.20;97.20;;;;;;1687415;29;20208;-72
2022/07/30 07:14:34;;;;;;;12.80;7.67;;;22.20;97.20;;;;;;1681164;29;20311;-72
2022/07/30 07:15:25;;;;;;;8.32;7.25;;;22.20;97.20;;;;;;1681255;29;20216;-72
2022/07/30 07:16:20;;;;;;;9.20;7.90;;;22.20;97.20;;;;;;1681131;29;20205;-72
2022/07/30 07:17:11;;;;;;;10.30;7.65;;;22.20;97.20;;;;;;1681008;29;20213;-72
2022/07/30 07:18:03;;;;;;;9.73;7.75;;;22.20;97.20;;;;;;1681112;29;20213;-72
2022/07/30 07:18:55;;;;;;;9.35;7.32;;;22.20;97.20;;;;;;1681215;29;20209;-72
2022/07/30 07:19:47;;;;;;;10.25;7.40;;;22.20;97.20;;;;;;1681309;29;20216;-72
2022/07/30 07:20:38;;;;;;;7.82;7.07;;;22.20;97.20;;;;;;1681173;29;20209;-72
2022/07/30 07:21:30;;;;;;;8.40;7.60;;;22.20;97.20;;;;;;1681311;29;20205;-72
2022/07/30 07:22:20;;;;;;;7.75;6.70;;;22.20;97.20;;;;;;1681176;29;20216;-72
2022/07/30 07:23:12;;;;;;;8.50;7.80;;;22.30;97.20;;;;;;1681076;29;20304;-72
2022/07/30 07:24:04;;;;;;;7.43;6.70;;;22.30;97.20;;;;;;1685168;29;20213;-72
2022/07/30 07:24:56;;;;;;;7.55;6.63;;;22.30;97.20;;;;;;1687631;29;20248;-72
2022/07/30 07:25:46;;;;;;;8.82;6.70;;;22.40;97.20;;;;;;1687758;29;20575;-72
2022/07/30 07:26:38;;;;;;;6.53;6.03;;;22.40;97.20;;;;;;1687460;29;20646;-72
2022/07/30 07:27:29;;;;;;;8.60;6.55;;;22.40;97.20;;;;;;1687629;29;20212;-72
2022/07/30 07:28:21;;;;;;;8.88;6.78;;;22.50;97.20;;;;;;1687545;29;20200;-72
2022/07/30 07:29:12;;;;;;;6.25;5.40;;;22.50;97.20;;;;;;1687683;29;20212;-72
2022/07/30 07:30:06;;;;;;;6.50;5.90;;;22.50;97.20;;;;;;1687663;29;20704;-73
2022/07/30 07:30:57;;;;;;;8.82;6.50;;;22.50;97.20;;;;;;1687619;29;20208;-72
2022/07/30 07:31:48;;;;;;;6.80;6.10;;;22.60;97.20;;;;;;1687746;29;20204;-72
2022/07/30 07:32:39;;;;;;;9.65;6.72;;;22.60;97.20;;;;;;1687652;29;20209;-72
2022/07/30 07:33:31;;;;;;;5.87;5.37;;;22.70;97.20;;;;;;1687770;29;20276;-72
2022/07/30 07:34:23;;;;;;;8.07;6.35;;;22.70;97.20;;;;;;1688311;29;20200;-72
2022/07/30 07:35:15;;;;;;;8.80;6.35;;;22.70;97.20;;;;;;1694110;29;20691;-72
2022/07/30 07:36:06;;;;;;;7.97;6.15;;;22.80;97.20;;;;;;1693995;29;20223;-72
2022/07/30 07:36:57;;;;;;;6.30;5.70;;;22.80;97.20;;;;;;1693800;29;20294;-72
2022/07/30 07:37:48;;;;;;;6.40;5.65;;;22.90;97.20;;;;;;1693911;29;20825;-72
2022/07/30 07:38:40;;;;;;;6.23;5.60;;;22.90;97.20;;;;;;1694672;29;20630;-72
2022/07/30 07:39:31;;;;;;;6.00;5.50;;;22.90;97.20;;;;;;1695434;29;20203;-72
2022/07/30 07:40:23;;;;;;;5.53;5.00;;;22.90;97.20;;;;;;1695451;29;20206;-72
2022/07/30 07:41:13;;;;;;;9.02;5.50;;;23.00;97.20;;;;;;1695278;29;20446;-72
2022/07/30 07:42:05;;;;;;;6.43;5.73;;;23.00;97.20;;;;;;1695340;29;20206;-72
2022/07/30 07:42:56;;;;;;;5.95;5.45;;;23.10;97.20;;;;;;1695400;29;20606;-72
2022/07/30 07:43:48;;;;;;;7.33;5.47;;;23.10;97.20;;;;;;1694971;29;20338;-72
2022/07/30 07:44:39;;;;;;;6.50;5.90;;;23.10;97.20;;;;;;1695367;29;20224;-72
2022/07/30 07:45:30;;;;;;;9.00;6.30;;;23.10;97.20;;;;;;1695357;29;20254;-72
2022/07/30 07:46:21;;;;;;;6.72;5.90;;;23.20;97.20;;;;;;1694871;29;20594;-72
2022/07/30 07:47:13;;;;;;;6.33;5.73;;;23.20;97.20;;;;;;1695122;29;20225;-72
2022/07/30 07:48:04;;;;;;;5.70;5.20;;;23.20;97.20;;;;;;1695338;29;20212;-72
2022/07/30 07:48:56;;;;;;;6.25;5.10;;;23.20;97.20;;;;;;1695420;29;20304;-72
2022/07/30 07:49:48;;;;;;;5.88;5.15;;;23.20;97.20;;;;;;1695322;29;20214;-72
2022/07/30 07:50:40;;;;;;;5.32;4.85;;;23.20;97.20;;;;;;1695308;29;20211;-72
2022/07/30 07:51:31;;;;;;;6.40;4.65;;;23.20;97.20;;;;;;1695356;29;20555;-72
2022/07/30 07:52:23;;;;;;;8.10;5.00;;;23.20;97.20;;;;;;1695296;29;20565;-72
2022/07/30 07:53:13;;;;;;;7.07;4.75;;;23.30;97.20;;;;;;1695308;29;20200;-72
2022/07/30 07:54:05;;;;;;;5.03;4.53;;;23.30;97.20;;;;;;1695074;29;20230;-73
2022/07/30 07:54:56;;;;;;;5.78;4.60;;;23.30;97.20;;;;;;1695220;29;20852;-72
2022/07/30 07:55:48;;;;;;;4.90;4.50;;;23.40;97.20;;;;;;1695315;29;20642;-72
2022/07/30 07:56:39;;;;;;;7.18;4.72;;;23.50;97.20;;;;;;1694932;29;20211;-72
2022/07/30 07:57:30;;;;;;;5.17;4.67;;;23.50;97.20;;;;;;1695327;29;20223;-72
2022/07/30 07:58:21;;;;;;;4.90;4.40;;;23.50;97.20;;;;;;1695209;29;20600;-72
2022/07/30 07:59:13;;;;;;;5.20;4.80;;;23.50;97.20;;;;;;1695356;29;20638;-72
2022/07/30 08:00:05;;;;;;;4.78;4.35;;;23.60;97.20;;;;;;1695257;29;20214;-72
2022/07/30 08:00:56;;;;;;;4.43;4.03;;;23.60;97.20;;;;;;1695224;29;20286;-72
2022/07/30 08:01:47;;;;;;;4.15;3.80;;;23.60;97.20;;;;;;1695310;29;20211;-72
2022/07/30 08:02:39;;;;;;;5.27;4.77;;;23.70;97.20;;;;;;1695243;29;20294;-73
2022/07/30 08:03:30;;;;;;;5.57;3.95;;;23.70;97.20;;;;;;1695239;29;20204;-72
2022/07/30 08:04:21;;;;;;;4.17;3.87;;;23.70;97.20;;;;;;1694712;29;20316;-72
2022/07/30 08:05:14;;;;;;;4.38;3.75;;;23.70;97.20;;;;;;1695235;29;20208;-72
2022/07/30 08:06:06;;;;;;;4.30;3.90;;;23.80;97.20;;;;;;1695197;29;20262;-73
2022/07/30 08:06:57;;;;;;;5.95;4.30;;;23.80;97.20;;;;;;1694861;29;20223;-72
2022/07/30 08:07:49;;;;;;;5.80;4.50;;;23.80;97.20;;;;;;1695172;29;20287;-73
2022/07/30 08:08:40;;;;;;;4.18;3.78;;;23.90;97.20;;;;;;1695156;29;20567;-72
2022/07/30 08:09:32;;;;;;;3.90;3.60;;;23.90;97.20;;;;;;1695258;29;20311;-72
2022/07/30 08:10:22;;;;;;;5.35;4.43;;;23.90;97.20;;;;;;1695181;29;20204;-72
2022/07/30 08:11:14;;;;;;;4.20;3.90;;;24.00;97.20;;;;;;1695181;29;20294;-72
2022/07/30 08:12:05;;;;;;;5.90;4.40;;;24.00;97.20;;;;;;1695188;29;20447;-72
2022/07/30 08:12:57;;;;;;;6.10;4.00;;;24.10;97.20;;;;;;1695227;29;20295;-72
2022/07/30 08:13:48;;;;;;;4.30;3.90;;;24.10;97.20;;;;;;1694988;29;20940;-73
2022/07/30 08:14:39;;;;;;;4.53;4.13;;;24.20;97.20;;;;;;1695101;29;20759;-72
2022/07/30 08:15:30;;;;;;;4.80;4.40;;;24.20;97.20;;;;;;1695166;29;20204;-72
2022/07/30 08:16:22;;;;;;;11.63;4.30;;;24.20;97.20;;;;;;1695140;29;20279;-72
2022/07/30 08:17:13;;;;;;;4.72;4.30;;;24.30;97.20;;;;;;1695003;29;20212;-73
2022/07/30 08:18:06;;;;;;;4.57;4.17;;;24.30;97.20;;;;;;1695046;29;20299;-73
2022/07/30 08:18:57;;;;;;;5.68;4.55;;;24.30;97.20;;;;;;1695173;29;20212;-72
2022/07/30 08:19:49;;;;;;;6.30;4.23;;;24.40;97.20;;;;;;1695143;29;20260;-72
2022/07/30 08:20:41;;;;;;;5.50;3.80;;;24.40;97.20;;;;;;1695133;29;20687;-73
2022/07/30 08:21:33;;;;;;;4.13;3.55;;;24.40;97.20;;;;;;1695124;29;20242;-73
2022/07/30 08:22:24;;;;;;;5.15;4.65;;;24.50;97.20;;;;;;1695058;29;20211;-72
2022/07/30 08:23:16;;;;;;;4.50;4.10;;;24.50;97.20;;;;;;1695204;29;20204;-72
2022/07/30 08:24:07;;;;;;;4.55;3.75;;;24.50;97.20;;;;;;1694763;29;20224;-72
2022/07/30 08:24:59;;;;;;;4.03;3.63;;;24.60;97.20;;;;;;1695123;29;20255;-72
2022/07/30 08:25:50;;;;;;;7.50;4.63;;;24.60;97.20;;;;;;1695098;29;20824;-73
2022/07/30 08:26:42;;;;;;;4.80;4.40;;;24.60;97.20;;;;;;1694855;29;20656;-73
2022/07/30 08:27:33;;;;;;;4.05;3.75;;;24.60;97.20;;;;;;1695102;29;20467;-72
2022/07/30 08:28:24;;;;;;;4.40;4.10;;;24.70;97.20;;;;;;1695068;29;20279;-72
2022/07/30 08:29:15;;;;;;;4.50;3.80;;;24.70;97.20;;;;;;1695039;29;20447;-72
2022/07/30 08:30:09;;;;;;;8.53;3.93;;;24.70;97.20;;;;;;1695172;29;20203;-72
2022/07/30 08:31:00;;;;;;;5.95;3.90;;;24.70;97.20;;;;;;1695082;29;20208;-72
2022/07/30 08:31:51;;;;;;;4.90;4.40;;;24.80;97.20;;;;;;1695157;29;20242;-73
2022/07/30 08:32:42;;;;;;;4.38;4.00;;;24.80;97.20;;;;;;1695093;29;20664;-72
2022/07/30 08:33:34;;;;;;;4.80;4.50;;;24.80;97.20;;;;;;1695166;29;20716;-73
2022/07/30 08:34:25;;;;;;;4.90;4.25;;;24.80;97.20;;;;;;1694634;29;20657;-72
2022/07/30 08:35:17;;;;;;;4.60;4.20;;;24.80;97.20;;;;;;1695141;29;20633;-73
2022/07/30 08:36:09;;;;;;;3.85;3.55;;;24.90;97.20;;;;;;1694966;29;20211;-72
2022/07/30 08:37:01;;;;;;;4.40;3.97;;;24.90;97.20;;;;;;1694679;29;20226;-72
2022/07/30 08:37:51;;;;;;;4.10;3.80;;;24.90;97.20;;;;;;1695043;29;20208;-72
2022/07/30 08:38:43;;;;;;;4.13;3.73;;;24.90;97.20;;;;;;1695044;29;20295;-73
2022/07/30 08:39:34;;;;;;;4.05;3.65;;;24.90;97.20;;;;;;1695149;29;20204;-72
2022/07/30 08:40:26;;;;;;;5.82;3.88;;;24.90;97.20;;;;;;1695071;29;20291;-73
2022/07/30 08:41:18;;;;;;;4.57;3.80;;;24.90;97.20;;;;;;1695023;29;20204;-73
2022/07/30 08:42:12;;;;;;;4.65;4.25;;;24.90;97.20;;;;;;1695049;29;20196;-72
2022/07/30 08:43:05;;;;;;;5.00;3.65;;;24.90;97.20;;;;;;1695066;29;20603;-72
2022/07/30 08:44:00;;;;;;;6.05;4.45;;;24.90;97.20;;;;;;1694653;29;20235;-72
2022/07/30 08:44:52;;;;;;;4.65;3.58;;;24.90;97.20;;;;;;1694962;29;20239;-72
2022/07/30 08:45:45;;;;;;;8.57;4.05;;;24.90;97.20;;;;;;1694976;29;20206;-72
2022/07/30 08:46:41;;;;;;;4.18;3.75;;;24.90;97.20;;;;;;1694688;29;20199;-72
2022/07/30 08:47:34;;;;;;;4.90;3.60;;;24.80;97.20;;;;;;1695086;29;20772;-72
2022/07/30 08:48:25;;;;;;;4.70;3.60;;;24.90;97.20;;;;;;1694852;29;20200;-73
2022/07/30 08:49:18;;;;;;;4.60;3.80;;;24.90;97.20;;;;;;1694974;29;20290;-73
2022/07/30 08:50:10;;;;;;;3.83;3.53;;;24.90;97.20;;;;;;1694206;29;20200;-72
2022/07/30 08:51:03;;;;;;;4.13;3.72;;;25.00;97.20;;;;;;1694815;29;20267;-72
2022/07/30 08:51:55;;;;;;;7.70;3.65;;;25.00;97.20;;;;;;1694902;29;20204;-73
2022/07/30 08:52:48;;;;;;;4.82;4.18;;;25.00;97.20;;;;;;1695121;29;20204;-72
2022/07/30 08:53:42;;;;;;;4.03;3.65;;;25.10;97.20;;;;;;1694910;29;20287;-72
2022/07/30 08:54:34;;;;;;;5.00;3.38;;;25.10;97.20;;;;;;1694680;29;20283;-72
2022/07/30 08:55:25;;;;;;;4.25;3.92;;;25.10;97.20;;;;;;1694951;29;20203;-72
2022/07/30 08:56:17;;;;;;;5.10;4.37;;;25.10;97.20;;;;;;1694876;29;20711;-72
2022/07/30 08:57:08;;;;;;;4.25;3.80;;;25.10;97.20;;;;;;1694596;29;20463;-72
2022/07/30 08:58:00;;;;;;;6.70;4.20;;;25.10;97.20;;;;;;1694851;29;20207;-72
2022/07/30 08:58:51;;;;;;;4.53;3.83;;;25.10;97.20;;;;;;1694892;29;20203;-72
2022/07/30 08:59:43;;;;;;;4.50;3.83;;;25.10;97.20;;;;;;1694862;29;20246;-72
2022/07/30 09:00:34;;;;;;;5.13;3.55;;;25.10;97.20;;;;;;1694885;29;20467;-72
2022/07/30 09:01:25;;;;;;;4.37;3.67;;;25.10;97.20;;;;;;1694950;29;20227;-72
2022/07/30 09:02:16;;;;;;;3.67;3.38;;;25.10;97.20;;;;;;1694623;29;20293;-72
2022/07/30 09:03:08;;;;;;;5.17;3.73;;;25.10;97.20;;;;;;1694900;29;20376;-72
2022/07/30 09:03:59;;;;;;;4.13;3.70;;;25.10;97.20;;;;;;1694753;29;20208;-71
2022/07/30 09:04:50;;;;;;;5.80;3.67;;;25.10;97.20;;;;;;1694785;29;20310;-72
2022/07/30 09:05:41;;;;;;;3.72;3.10;;;25.10;97.20;;;;;;1694867;29;20207;-72
2022/07/30 09:06:33;;;;;;;5.97;3.80;;;25.10;97.20;;;;;;1694665;29;20303;-71
2022/07/30 09:07:25;;;;;;;5.25;3.58;;;25.10;97.20;;;;;;1694854;29;20208;-72
2022/07/30 09:08:17;;;;;;;4.13;3.50;;;25.00;97.20;;;;;;1694812;29;20214;-72
2022/07/30 09:09:07;;;;;;;3.70;3.40;;;25.00;97.20;;;;;;1694891;29;20220;-72
2022/07/30 09:09:59;;;;;;;3.80;3.40;;;25.00;97.20;;;;;;1694800;29;20208;-72
2022/07/30 09:10:51;;;;;;;10.75;3.42;;;25.00;97.20;;;;;;1694895;29;20206;-72
2022/07/30 09:11:42;;;;;;;4.20;3.30;;;25.00;97.20;;;;;;1694865;29;20211;-72
2022/07/30 09:12:39;;;;;;;6.13;3.50;;;25.00;97.20;;;;;;1694599;29;20238;-72
2022/07/30 09:13:33;;;;;;;6.00;3.40;;;25.00;97.20;;;;;;1694933;29;20351;-72
2022/07/30 09:14:25;;;;;;;3.70;3.40;;;25.00;97.20;;;;;;1694820;29;20198;-72
2022/07/30 09:15:18;;;;;;;4.47;3.40;;;25.00;97.20;;;;;;1694790;29;20579;-72
2022/07/30 09:16:20;;;;;;;3.72;3.42;;;25.00;97.20;;;;;;1694837;29;20203;-73
2022/07/30 09:17:11;;;;;;;3.72;2.95;;;25.00;97.20;;;;;;1694624;29;20215;-72
2022/07/30 09:18:03;;;;;;;4.00;3.20;;;25.00;97.20;;;;;;1694721;29;20239;-72
2022/07/30 09:18:54;;;;;;;8.30;3.10;;;25.00;97.20;;;;;;1694790;29;20211;-72
2022/07/30 09:20:02;;;;;;;4.73;3.27;;;25.00;97.20;;;;;;1694827;29;20224;-72
2022/07/30 09:20:53;;;;;;;5.35;3.35;;;25.00;97.20;;;;;;1694009;29;20460;-72
2022/07/30 09:21:56;;;;;;;5.17;3.27;;;25.00;97.20;;;;;;1694790;29;20232;-72
2022/07/30 09:22:50;;;;;;;3.80;3.47;;;25.00;97.20;;;;;;1694581;29;20258;-72
2022/07/30 09:23:55;;;;;;;5.07;3.83;;;25.00;97.20;;;;;;1694726;29;20204;-72
2022/07/30 09:24:46;;;;;;;4.78;3.33;;;25.10;97.20;;;;;;1694737;29;20220;-72
2022/07/30 09:25:40;;;;;;;3.97;3.10;;;25.10;97.20;;;;;;1694820;29;20298;-72
2022/07/30 09:26:32;;;;;;;3.30;3.00;;;25.10;97.20;;;;;;1694749;29;20212;-72
2022/07/30 09:27:23;;;;;;;3.85;3.05;;;25.10;97.20;;;;;;1694701;29;20203;-72
2022/07/30 09:28:15;;;;;;;4.78;3.03;;;25.20;97.20;;;;;;1694735;29;20204;-72
2022/07/30 09:29:17;;;;;;;3.45;3.15;;;25.20;97.20;;;;;;1694824;29;20680;-72
2022/07/30 09:30:08;;;;;;;4.10;2.75;;;25.20;97.20;;;;;;1694693;29;20212;-72